Time;durP1;ratioP1;P1;durP2;ratioP2;P2;SDS_P1;SDS_P2;PMS_P1;PMS_P2;Temp;Humidity;BMP_temperature;BMP_pressure;BME280_temperature;BME280_humidity;BME280_pressure;Samples;Min_cycle;Max_cycle;Signal;HPM_P1;HPM_P2
2021/01/21 00:00:44;;;;;;;23.55;13.90;;;;;;;4.75;64.18;99122.63;5023530;28;20045;-68
2021/01/21 00:03:11;;;;;;;26.65;13.43;;;;;;;4.76;63.93;99107.75;5021733;28;20060;-64
2021/01/21 00:05:37;;;;;;;29.20;13.68;;;;;;;4.76;64.03;99111.19;5022409;28;20107;-66
2021/01/21 00:08:04;;;;;;;27.75;14.63;;;;;;;4.77;64.13;99112.88;5023410;28;20050;-64
2021/01/21 00:10:30;;;;;;;31.05;14.13;;;;;;;4.78;64.10;99111.94;5023001;28;20075;-64
2021/01/21 00:12:58;;;;;;;24.98;16.08;;;;;;;4.81;64.01;99104.81;5021954;28;20049;-65
2021/01/21 00:15:24;;;;;;;21.80;13.68;;;;;;;4.83;64.06;99106.41;5023157;28;20045;-65
2021/01/21 00:17:50;;;;;;;26.90;15.43;;;;;;;4.84;63.75;99102.00;5023120;28;20057;-63
2021/01/21 00:20:17;;;;;;;29.20;14.27;;;;;;;4.88;63.93;99100.84;5023411;28;20049;-64
2021/01/21 00:22:43;;;;;;;23.17;12.40;;;;;;;4.89;63.81;99099.91;5023133;28;20103;-65
2021/01/21 00:25:11;;;;;;;24.13;13.30;;;;;;;4.89;63.88;99110.38;5021540;28;20049;-70
2021/01/21 00:27:37;;;;;;;26.17;13.63;;;;;;;4.93;63.66;99109.22;5021995;28;20124;-65
2021/01/21 00:30:08;;;;;;;32.83;15.90;;;;;;;4.96;63.76;99104.63;5022997;28;20049;-73
2021/01/21 00:32:34;;;;;;;23.80;13.60;;;;;;;4.99;63.59;99111.44;5022666;28;20045;-65
2021/01/21 00:35:00;;;;;;;23.73;12.88;;;;;;;5.00;63.68;99112.28;5023134;28;20057;-69
2021/01/21 00:37:27;;;;;;;25.77;14.55;;;;;;;5.03;63.51;99118.13;5023680;28;20509;-65
2021/01/21 00:39:53;;;;;;;26.77;14.82;;;;;;;5.02;63.37;99116.44;5022851;28;20477;-70
2021/01/21 00:42:20;;;;;;;23.98;14.35;;;;;;;5.00;63.54;99112.28;5024020;28;20128;-69
2021/01/21 00:44:46;;;;;;;28.58;14.20;;;;;;;5.02;63.62;99113.00;5023535;28;20502;-64
2021/01/21 00:47:14;;;;;;;29.30;14.70;;;;;;;5.02;63.66;99116.44;5024117;28;20147;-64
2021/01/21 00:49:40;;;;;;;31.27;15.10;;;;;;;5.02;63.45;99113.81;5024033;28;20049;-66
2021/01/21 00:52:06;;;;;;;29.27;13.80;;;;;;;5.02;63.39;99113.00;5025432;28;20394;-65
2021/01/21 00:54:34;;;;;;;29.67;16.05;;;;;;;5.00;63.39;99118.34;5025225;28;20661;-66
2021/01/21 00:57:00;;;;;;;28.60;14.93;;;;;;;5.00;63.41;99107.88;5024921;28;20041;-64
2021/01/21 00:59:27;;;;;;;29.23;15.75;;;;;;;4.98;63.33;99107.97;5025006;28;20064;-65
2021/01/21 01:01:53;;;;;;;32.15;16.10;;;;;;;4.97;63.27;99106.31;5023514;28;20053;-67
2021/01/21 01:04:20;;;;;;;30.25;16.00;;;;;;;4.97;63.26;99108.91;5024909;28;20072;-70
2021/01/21 01:06:47;;;;;;;36.60;16.08;;;;;;;4.97;63.35;99113.31;5023828;28;20068;-64
2021/01/21 01:09:13;;;;;;;28.15;17.00;;;;;;;4.95;63.20;99095.09;5022467;28;20057;-67
2021/01/21 01:11:40;;;;;;;26.65;15.70;;;;;;;4.95;62.97;99100.34;5024571;28;20504;-67
2021/01/21 01:14:06;;;;;;;33.67;17.55;;;;;;;4.94;63.05;99103.06;5023788;28;20686;-67
2021/01/21 01:16:33;;;;;;;32.33;17.60;;;;;;;4.93;63.32;99097.00;5023896;28;20132;-65
2021/01/21 01:18:59;;;;;;;27.52;16.67;;;;;;;4.92;63.15;99099.72;5024625;28;20394;-65
2021/01/21 01:21:27;;;;;;;29.80;17.15;;;;;;;4.89;63.19;99094.69;5023369;28;20049;-67
2021/01/21 01:23:53;;;;;;;31.55;17.23;;;;;;;4.88;63.45;99093.00;5022960;28;20056;-67
2021/01/21 01:26:20;;;;;;;29.35;17.65;;;;;;;4.86;63.39;99089.66;5023679;28;20080;-67
2021/01/21 01:28:46;;;;;;;26.42;16.35;;;;;;;4.84;63.30;99094.16;5020838;28;20049;-65
2021/01/21 01:31:13;;;;;;;29.85;15.93;;;;;;;4.84;63.31;99086.28;5022378;28;20054;-66
2021/01/21 01:33:39;;;;;;;26.58;16.00;;;;;;;4.83;63.38;99092.50;5023350;28;20041;-64
2021/01/21 01:36:06;;;;;;;31.42;16.20;;;;;;;4.82;63.37;99086.41;5022819;28;20049;-64
2021/01/21 01:38:33;;;;;;;34.42;17.13;;;;;;;4.81;63.51;99081.25;5023648;28;20053;-70
2021/01/21 01:41:00;;;;;;;26.95;17.85;;;;;;;4.80;63.46;99088.28;5023027;28;20068;-65
2021/01/21 01:43:26;;;;;;;29.95;17.23;;;;;;;4.81;63.48;99081.25;5022668;28;20049;-65
2021/01/21 01:45:53;;;;;;;33.53;18.23;;;;;;;4.79;63.48;99092.69;5023933;28;20045;-64
2021/01/21 01:48:20;;;;;;;31.25;16.92;;;;;;;4.79;63.61;99081.41;5023562;28;20049;-69
2021/01/21 01:50:47;;;;;;;31.90;17.75;;;;;;;4.82;63.40;99083.78;5022926;28;20092;-63
2021/01/21 01:53:14;;;;;;;33.60;16.58;;;;;;;4.83;63.55;99084.63;5023868;28;20057;-65
2021/01/21 01:55:41;;;;;;;28.65;15.77;;;;;;;4.82;63.58;99094.25;5023365;28;20490;-64
2021/01/21 01:58:09;;;;;;;35.80;20.13;;;;;;;4.80;63.55;99090.91;5021184;28;20049;-67
2021/01/21 02:00:36;;;;;;;29.50;16.52;;;;;;;4.78;63.56;99082.31;5024041;28;20056;-68
2021/01/21 02:03:03;;;;;;;30.23;17.70;;;;;;;4.79;63.66;99094.47;5022597;28;20045;-65
2021/01/21 02:05:29;;;;;;;29.67;16.83;;;;;;;4.76;63.65;99084.19;5022444;28;20049;-69
2021/01/21 02:07:56;;;;;;;37.65;19.02;;;;;;;4.73;63.76;99085.22;5023429;28;20118;-64
2021/01/21 02:10:23;;;;;;;34.05;18.40;;;;;;;4.74;63.60;99081.69;5023237;28;20053;-69
2021/01/21 02:13:07;;;;;;;35.67;19.98;;;;;;;4.76;63.83;99076.34;5024915;28;20665;-66
2021/01/21 02:15:48;;;;;;;31.02;16.20;;;;;;;4.75;63.73;99078.16;5023042;28;20045;-68
2021/01/21 02:18:21;;;;;;;30.38;19.25;;;;;;;4.73;63.75;99082.63;5022677;28;20049;-64
2021/01/21 02:21:20;;;;;;;35.08;20.25;;;;;;;4.74;63.87;99076.47;5021277;28;20045;-68
2021/01/21 02:24:05;;;;;;;29.45;16.92;;;;;;;4.73;63.93;99082.63;5023593;28;20049;-64
2021/01/21 02:26:37;;;;;;;28.50;14.77;;;;;;;4.74;63.63;99080.84;5020874;28;20045;-64
2021/01/21 02:29:12;;;;;;;30.13;17.50;;;;;;;4.73;64.09;99082.63;5023074;28;20060;-65
2021/01/21 02:31:49;;;;;;;29.00;16.70;;;;;;;4.75;63.88;99078.16;5023145;28;20514;-68
2021/01/21 02:34:20;;;;;;;29.10;17.23;;;;;;;4.75;63.95;99069.44;5021985;28;20709;-71
2021/01/21 02:36:56;;;;;;;35.72;17.05;;;;;;;4.77;63.96;99067.56;5023276;28;20071;-65
2021/01/21 02:39:24;;;;;;;35.67;17.67;;;;;;;4.75;63.81;99067.69;5023140;28;20189;-64
2021/01/21 02:41:50;;;;;;;31.17;18.05;;;;;;;4.78;63.89;99071.84;5022363;28;20049;-65
2021/01/21 02:44:17;;;;;;;28.75;17.30;;;;;;;4.78;63.77;99064.84;5023676;28;20620;-65
2021/01/21 02:46:45;;;;;;;30.17;18.05;;;;;;;4.81;63.97;99071.66;5022157;28;20049;-64
2021/01/21 02:49:12;;;;;;;34.08;18.02;;;;;;;4.82;63.87;99067.25;5021995;28;20046;-65
2021/01/21 02:51:43;;;;;;;29.02;16.42;;;;;;;4.84;63.93;99066.19;5022730;28;20049;-65
2021/01/21 02:54:30;;;;;;;31.05;17.33;;;;;;;4.87;63.95;99067.78;5022098;28;20046;-64
2021/01/21 02:57:03;;;;;;;37.22;18.38;;;;;;;4.85;63.76;99057.41;5020974;28;20049;-65
2021/01/21 02:59:33;;;;;;;33.35;19.42;;;;;;;4.84;63.88;99060.97;5022212;28;20107;-68
2021/01/21 03:02:02;;;;;;;33.40;18.08;;;;;;;4.83;63.84;99064.53;5022682;28;20049;-65
2021/01/21 03:04:30;;;;;;;36.65;20.10;;;;;;;4.83;63.83;99063.72;5022127;28;20053;-66
2021/01/21 03:07:00;;;;;;;40.08;22.48;;;;;;;4.82;63.91;99056.78;5022237;28;20046;-66
2021/01/21 03:09:27;;;;;;;38.00;20.83;;;;;;;4.82;63.74;99062.84;5022133;28;20057;-65
2021/01/21 03:11:53;;;;;;;33.10;20.13;;;;;;;4.81;63.90;99065.56;5023305;28;20041;-65
2021/01/21 03:14:19;;;;;;;41.63;20.77;;;;;;;4.81;63.78;99062.94;5022199;28;20100;-65
2021/01/21 03:16:46;;;;;;;37.08;20.63;;;;;;;4.78;63.96;99075.31;5021595;28;20509;-65
2021/01/21 03:19:12;;;;;;;41.90;24.02;;;;;;;4.75;63.89;99078.16;5021934;28;20524;-67
2021/01/21 03:21:38;;;;;;;36.90;22.05;;;;;;;4.74;63.94;99076.47;5022510;28;20072;-64
2021/01/21 03:24:07;;;;;;;43.60;23.35;;;;;;;4.73;63.99;99079.16;5022211;28;20056;-65
2021/01/21 03:26:33;;;;;;;39.55;22.13;;;;;;;4.73;63.97;99087.84;5020327;28;20454;-65
2021/01/21 03:28:59;;;;;;;44.80;23.13;;;;;;;4.71;64.11;99089.72;5021907;28;20049;-65
2021/01/21 03:31:26;;;;;;;40.92;21.65;;;;;;;4.71;64.07;99088.91;5022121;28;20577;-65
2021/01/21 03:33:52;;;;;;;47.08;22.52;;;;;;;4.69;64.10;99094.22;5022874;28;20054;-66
2021/01/21 03:36:18;;;;;;;40.15;21.45;;;;;;;4.67;64.00;99087.44;5022174;28;20513;-66
2021/01/21 03:38:45;;;;;;;42.72;23.77;;;;;;;4.65;63.97;99091.94;5022067;28;20609;-65
2021/01/21 03:41:12;;;;;;;43.08;23.08;;;;;;;4.64;64.21;99093.69;5022557;28;20042;-65
2021/01/21 03:43:38;;;;;;;39.65;23.05;;;;;;;4.62;64.03;99087.75;5022389;28;20454;-64
2021/01/21 03:46:05;;;;;;;42.63;23.48;;;;;;;4.61;64.12;99091.31;5022567;28;20060;-68
2021/01/21 03:48:31;;;;;;;43.22;24.08;;;;;;;4.58;64.29;99091.50;5025665;28;20049;-67
2021/01/21 03:50:57;;;;;;;48.65;25.10;;;;;;;4.57;64.17;99090.69;5026164;28;20610;-66
2021/01/21 03:53:24;;;;;;;51.58;28.90;;;;;;;4.55;64.00;99086.47;5026112;28;20428;-66
2021/01/21 03:55:50;;;;;;;41.90;23.48;;;;;;;4.54;64.30;99087.44;5026529;28;20052;-65
2021/01/21 03:58:17;;;;;;;44.45;24.33;;;;;;;4.51;64.15;99083.22;5023939;28;20493;-69
2021/01/21 04:00:44;;;;;;;39.60;22.98;;;;;;;4.49;64.23;99084.28;5025452;28;20107;-63
2021/01/21 04:03:10;;;;;;;40.72;23.15;;;;;;;4.47;64.15;99083.53;4973869;28;20042;-66
2021/01/21 04:05:36;;;;;;;37.15;18.63;;;;;;;4.44;64.14;99079.34;5025330;28;20099;-67
2021/01/21 04:08:03;;;;;;;39.42;22.38;;;;;;;4.39;64.20;99074.44;5025615;28;20033;-65
2021/01/21 04:10:29;;;;;;;49.35;25.55;;;;;;;4.35;64.17;99072.94;5025102;28;20120;-71
2021/01/21 04:12:56;;;;;;;41.63;22.08;;;;;;;4.32;64.16;99078.38;5024396;28;20519;-73
2021/01/21 04:15:23;;;;;;;47.83;24.40;;;;;;;4.28;64.28;99074.25;5025013;28;20589;-67
2021/01/21 04:17:49;;;;;;;46.70;25.70;;;;;;;4.28;64.43;99073.44;5025246;28;20103;-70
2021/01/21 04:20:16;;;;;;;44.05;25.85;;;;;;;4.21;64.45;99070.38;5024102;28;20129;-70
2021/01/21 04:22:42;;;;;;;45.03;25.40;;;;;;;4.20;64.37;99073.94;5024745;28;20045;-70
2021/01/21 04:25:10;;;;;;;45.45;25.08;;;;;;;4.16;64.30;99070.69;5024360;28;20069;-70
2021/01/21 04:27:36;;;;;;;54.22;28.23;;;;;;;4.13;64.22;99064.81;5022986;28;20045;-71
2021/01/21 04:30:03;;;;;;;51.17;24.92;;;;;;;4.10;64.30;99065.03;5025929;28;20712;-71
2021/01/21 04:32:30;;;;;;;53.55;27.77;;;;;;;4.08;64.38;99062.50;5024810;28;20045;-65
2021/01/21 04:34:57;;;;;;;47.42;22.65;;;;;;;4.07;64.36;99054.75;5024738;28;20494;-67
2021/01/21 04:37:23;;;;;;;50.28;23.73;;;;;;;4.08;64.28;99052.06;5024973;28;20560;-63
2021/01/21 04:39:49;;;;;;;42.63;23.77;;;;;;;4.09;64.37;99052.88;5024872;28;20045;-67
2021/01/21 04:42:16;;;;;;;40.25;22.95;;;;;;;4.09;64.23;99056.34;5024291;28;20123;-67
2021/01/21 04:44:42;;;;;;;46.55;21.83;;;;;;;4.09;64.22;99056.34;5025259;28;20488;-66
2021/01/21 04:47:09;;;;;;;39.72;19.30;;;;;;;4.11;64.24;99051.84;5023928;28;20045;-67
2021/01/21 04:49:41;;;;;;;41.90;22.75;;;;;;;4.11;64.11;99061.47;5006761;28;20059;-70
2021/01/21 04:52:10;;;;;;;43.88;22.60;;;;;;;4.15;64.03;99053.31;5024338;28;20046;-67
2021/01/21 04:54:40;;;;;;;48.00;23.90;;;;;;;4.21;64.07;99052.09;5024195;28;20068;-65
2021/01/21 04:57:12;;;;;;;39.97;22.30;;;;;;;4.26;64.13;99055.25;5022884;28;20045;-66
2021/01/21 04:59:40;;;;;;;48.13;23.52;;;;;;;4.32;63.91;99065.31;5024373;28;20054;-69
2021/01/21 05:02:08;;;;;;;43.88;23.10;;;;;;;4.36;63.83;99056.31;5025095;28;20350;-70
2021/01/21 05:04:34;;;;;;;42.25;24.65;;;;;;;4.43;63.62;99059.38;5024165;28;20493;-69
2021/01/21 05:07:02;;;;;;;37.33;20.27;;;;;;;4.50;63.46;99058.03;5023203;28;20058;-66
2021/01/21 05:09:29;;;;;;;53.92;26.70;;;;;;;4.54;63.39;99056.03;5023556;28;20049;-70
2021/01/21 05:11:56;;;;;;;38.25;23.30;;;;;;;4.59;63.32;99056.53;5006089;28;20049;-69
2021/01/21 05:14:23;;;;;;;45.85;23.35;;;;;;;4.64;63.32;99057.09;5023443;28;20045;-68
2021/01/21 05:16:50;;;;;;;30.25;17.80;;;;;;;4.70;63.46;99058.44;5023807;28;20104;-64
2021/01/21 05:19:19;;;;;;;42.70;22.48;;;;;;;4.75;63.18;99065.06;5022319;28;20048;-65
2021/01/21 05:21:46;;;;;;;39.92;22.65;;;;;;;4.76;63.20;99063.28;5021293;28;20049;-65
2021/01/21 05:24:14;;;;;;;26.75;14.93;;;;;;;4.81;63.14;99063.81;5024824;28;20067;-66
2021/01/21 05:26:42;;;;;;;44.47;25.65;;;;;;;4.84;63.13;99060.97;5021762;28;20680;-65
2021/01/21 05:29:10;;;;;;;39.80;22.50;;;;;;;4.86;62.96;99064.34;5024105;28;20041;-65
2021/01/21 05:31:38;;;;;;;40.83;22.30;;;;;;;4.88;62.93;99064.22;5025607;28;20413;-66
2021/01/21 05:34:08;;;;;;;45.53;23.08;;;;;;;4.90;63.02;99060.56;5023964;28;20056;-66
2021/01/21 05:36:36;;;;;;;40.60;24.48;;;;;;;4.93;63.17;99068.22;5024610;28;20485;-66
2021/01/21 05:39:06;;;;;;;40.13;20.90;;;;;;;4.95;62.99;99062.84;5025978;28;20060;-67
2021/01/21 05:41:36;;;;;;;35.17;20.30;;;;;;;4.98;63.26;99063.47;5025512;28;20779;-66
2021/01/21 05:44:05;;;;;;;39.55;19.85;;;;;;;4.99;63.15;99069.56;5028709;28;20578;-71
2021/01/21 05:46:32;;;;;;;36.30;20.35;;;;;;;5.00;63.07;99066.00;5031949;28;20045;-66
2021/01/21 05:48:59;;;;;;;32.50;19.33;;;;;;;5.00;63.30;99063.38;5030207;28;20073;-70
2021/01/21 05:51:28;;;;;;;35.58;21.45;;;;;;;5.01;63.27;99066.84;5032107;28;20576;-67
2021/01/21 05:53:55;;;;;;;37.20;18.67;;;;;;;5.02;63.21;99073.75;5033887;28;20045;-65
2021/01/21 05:56:24;;;;;;;36.03;20.63;;;;;;;5.04;63.15;99071.84;5032368;28;20053;-68
2021/01/21 05:58:52;;;;;;;37.17;19.30;;;;;;;5.06;63.13;99065.59;5036478;28;20041;-67
2021/01/21 06:01:23;;;;;;;35.78;20.08;;;;;;;5.08;63.17;99070.72;5036814;28;20568;-70
2021/01/21 06:03:53;;;;;;;32.45;18.38;;;;;;;5.11;63.25;99068.72;5034410;28;20037;-67
2021/01/21 06:06:25;;;;;;;33.95;21.70;;;;;;;5.14;63.23;99067.66;5030527;28;20505;-68
2021/01/21 06:08:52;;;;;;;36.40;20.45;;;;;;;5.19;63.02;99068.19;5023592;28;20123;-69
2021/01/21 06:11:20;;;;;;;38.75;23.90;;;;;;;5.19;62.93;99059.50;5021442;28;20060;-70
2021/01/21 06:13:47;;;;;;;35.03;20.63;;;;;;;5.22;62.89;99065.38;5022763;28;20049;-68
2021/01/21 06:16:16;;;;;;;37.15;21.27;;;;;;;5.28;62.82;99056.25;5023938;28;20538;-68
2021/01/21 06:18:42;;;;;;;39.85;20.70;;;;;;;5.27;62.63;99058.00;5023152;28;20045;-69
2021/01/21 06:21:15;;;;;;;40.97;22.30;;;;;;;5.30;62.88;99056.97;5021790;28;20049;-68
2021/01/21 06:23:45;;;;;;;25.60;13.15;;;;;;;5.27;62.88;99070.28;5022410;28;20081;-70
2021/01/21 06:26:15;;;;;;;37.60;19.77;;;;;;;5.23;62.98;99081.91;5022742;28;20041;-69
2021/01/21 06:28:43;;;;;;;38.47;21.40;;;;;;;5.22;62.99;99077.59;5019867;28;20110;-70
2021/01/21 06:31:13;;;;;;;39.72;22.75;;;;;;;5.22;63.09;99074.97;5022274;28;20041;-67
2021/01/21 06:33:42;;;;;;;35.88;22.05;;;;;;;5.24;63.12;99078.34;5020858;28;20050;-69
2021/01/21 06:36:14;;;;;;;36.65;21.90;;;;;;;5.25;63.04;99080.03;5020286;28;20049;-69
2021/01/21 06:38:42;;;;;;;22.33;13.75;;;;;;;5.32;62.85;99086.50;5020997;28;20593;-69
2021/01/21 06:41:11;;;;;;;43.50;23.02;;;;;;;5.32;62.65;99081.25;5018748;28;20045;-66
2021/01/21 06:43:39;;;;;;;37.35;21.35;;;;;;;5.36;62.77;99078.31;5017270;28;20052;-71
2021/01/21 06:46:08;;;;;;;48.85;25.20;;;;;;;5.39;62.74;99076.44;5020015;28;20121;-65
2021/01/21 06:48:35;;;;;;;35.17;21.20;;;;;;;5.41;62.64;99074.56;5015745;28;20450;-64
2021/01/21 06:51:08;;;;;;;33.10;20.88;;;;;;;5.46;62.73;99077.69;5015642;28;20119;-69
2021/01/21 06:53:37;;;;;;;37.38;18.85;;;;;;;5.48;62.54;99078.41;5016873;28;20445;-65
2021/01/21 06:56:03;;;;;;;36.38;20.63;;;;;;;5.48;62.33;99076.63;4964066;28;20056;-69
2021/01/21 06:58:45;;;;;;;23.17;13.27;;;;;;;5.51;62.42;99079.03;5012398;28;20597;-66
2021/01/21 07:01:43;;;;;;;37.25;19.52;;;;;;;5.57;62.47;99077.75;5013409;28;20041;-67
2021/01/21 07:04:28;;;;;;;37.55;18.90;;;;;;;5.60;62.47;99074.09;5016955;28;20699;-66
2021/01/21 07:07:15;;;;;;;35.08;20.15;;;;;;;5.61;62.25;99078.38;5016517;28;20061;-67
2021/01/21 07:09:42;;;;;;;39.95;22.42;;;;;;;5.63;62.03;99090.41;5017661;28;20046;-67
2021/01/21 07:12:18;;;;;;;32.95;19.75;;;;;;;5.68;62.16;99084.88;5017507;28;20045;-67
2021/01/21 07:14:46;;;;;;;31.67;18.05;;;;;;;5.68;61.79;99079.63;5021438;28;20045;-66
2021/01/21 07:17:14;;;;;;;35.45;19.17;;;;;;;5.67;62.01;99080.56;5021236;28;20046;-66
2021/01/21 07:19:48;;;;;;;32.03;20.25;;;;;;;5.69;61.79;99079.53;5018947;28;20041;-68
2021/01/21 07:22:20;;;;;;;38.53;18.17;;;;;;;5.72;61.87;99081.91;5028351;28;20052;-68
2021/01/21 07:24:55;;;;;;;31.02;16.70;;;;;;;5.75;61.73;99084.31;5026467;28;20046;-68
2021/01/21 07:27:22;;;;;;;33.78;21.13;;;;;;;5.76;61.45;99079.91;5030677;28;20233;-67
2021/01/21 07:29:49;;;;;;;32.80;18.00;;;;;;;5.84;61.44;99085.44;5040457;28;20052;-67
2021/01/21 07:32:26;;;;;;;37.47;20.35;;;;;;;5.90;61.46;99078.91;5031817;28;20038;-68
2021/01/21 07:34:53;;;;;;;40.13;21.98;;;;;;;5.94;61.11;99080.38;5031106;28;20050;-69
2021/01/21 07:37:28;;;;;;;34.20;18.70;;;;;;;6.04;60.91;99067.47;5031692;28;20045;-71
2021/01/21 07:40:07;;;;;;;30.75;19.77;;;;;;;6.09;60.83;99070.59;5028541;28;20163;-68
2021/01/21 07:42:57;;;;;;;31.23;16.00;;;;;;;6.08;61.09;99064.50;5029817;28;20045;-67
2021/01/21 07:45:26;;;;;;;34.20;20.95;;;;;;;6.02;60.77;99059.72;4949768;28;20423;-69
2021/01/21 07:47:52;;;;;;;35.22;21.08;;;;;;;5.96;61.07;99064.56;4930668;29;20059;-71
2021/01/21 07:50:37;;;;;;;34.17;20.10;;;;;;;5.93;61.31;99062.97;4947655;29;20058;-71
2021/01/21 07:53:24;;;;;;;35.10;19.75;;;;;;;5.93;61.37;99065.59;4939693;29;20051;-72
2021/01/21 07:55:52;;;;;;;33.55;20.42;;;;;;;5.93;60.84;99063.81;4939514;29;20059;-71
2021/01/21 07:58:23;;;;;;;30.40;18.48;;;;;;;5.94;61.08;99060.25;4939425;29;20102;-70
2021/01/21 08:00:52;;;;;;;35.28;19.77;;;;;;;5.97;60.66;99063.63;4940755;29;20154;-68
2021/01/21 08:03:29;;;;;;;31.48;19.02;;;;;;;6.06;60.94;99055.09;4941349;28;20051;-68
2021/01/21 08:06:09;;;;;;;33.28;18.80;;;;;;;6.12;60.68;99060.72;4940136;29;20066;-67
2021/01/21 08:08:36;;;;;;;35.42;18.10;;;;;;;6.13;60.24;99062.38;4939290;29;20058;-69
2021/01/21 08:11:04;;;;;;;32.80;17.27;;;;;;;6.17;60.23;99052.50;4940322;29;20052;-66
2021/01/21 08:13:31;;;;;;;27.88;15.48;;;;;;;6.23;60.14;99053.84;4938945;29;20630;-69
2021/01/21 08:15:57;;;;;;;30.50;17.60;;;;;;;6.29;60.00;99049.00;4942928;29;20767;-70
2021/01/21 08:18:24;;;;;;;24.38;13.95;;;;;;;6.42;59.69;99055.97;4940274;29;20058;-69
2021/01/21 08:20:51;;;;;;;29.58;17.95;;;;;;;6.53;59.48;99053.34;4944051;28;20055;-68
2021/01/21 08:23:19;;;;;;;29.73;15.18;;;;;;;6.68;59.14;99057.47;5018273;28;20627;-68
2021/01/21 08:25:48;;;;;;;33.05;19.48;;;;;;;6.84;58.86;99066.78;5018119;28;20049;-66
2021/01/21 08:28:16;;;;;;;31.35;19.83;;;;;;;6.99;58.60;99051.69;5015944;28;20088;-66
2021/01/21 08:30:44;;;;;;;32.35;19.00;;;;;;;7.07;58.19;99063.22;5017809;28;20056;-70
2021/01/21 08:33:14;;;;;;;27.95;18.13;;;;;;;7.13;58.03;99066.34;5016238;28;20042;-67
2021/01/21 08:35:46;;;;;;;22.77;13.07;;;;;;;7.13;58.18;99068.97;5016628;28;20042;-67
2021/01/21 08:38:15;;;;;;;36.28;20.30;;;;;;;6.98;58.30;99066.56;5016901;28;20057;-67
2021/01/21 08:40:43;;;;;;;33.08;18.60;;;;;;;6.88;58.35;99057.75;5016865;28;20100;-69
2021/01/21 08:43:10;;;;;;;32.28;16.65;;;;;;;6.83;58.47;99059.88;5014535;28;20065;-68
2021/01/21 08:45:37;;;;;;;29.80;19.17;;;;;;;6.81;58.41;99061.78;5016544;28;20538;-67
2021/01/21 08:48:05;;;;;;;32.28;17.98;;;;;;;6.84;58.32;99061.53;5015901;28;20075;-66
2021/01/21 08:50:37;;;;;;;36.95;18.67;;;;;;;6.87;58.52;99062.13;5013400;28;20057;-68
2021/01/21 08:53:07;;;;;;;38.63;18.70;;;;;;;6.88;58.34;99055.13;5016207;28;20050;-67
2021/01/21 08:55:42;;;;;;;26.10;16.60;;;;;;;6.92;58.59;99064.41;5016771;28;20045;-66
2021/01/21 08:58:10;;;;;;;32.00;17.92;;;;;;;6.96;58.27;99068.47;5013009;28;20045;-66
2021/01/21 09:00:39;;;;;;;30.88;16.60;;;;;;;6.98;58.23;99071.00;5015312;28;20056;-65
2021/01/21 09:03:05;;;;;;;28.40;17.88;;;;;;;7.06;58.18;99072.06;5016129;28;20053;-70
2021/01/21 09:05:32;;;;;;;32.03;17.65;;;;;;;7.14;57.97;99068.03;5013966;28;20421;-67
2021/01/21 09:08:07;;;;;;;27.92;16.33;;;;;;;7.22;57.97;99063.00;5015754;28;20740;-70
2021/01/21 09:10:43;;;;;;;22.63;14.87;;;;;;;7.35;57.89;99073.41;5017798;28;20192;-66
2021/01/21 09:13:11;;;;;;;24.88;14.88;;;;;;;7.40;57.49;99065.97;5015364;28;20542;-68
2021/01/21 09:15:55;;;;;;;27.42;18.50;;;;;;;7.46;57.78;99066.34;5016062;28;20089;-69
2021/01/21 09:18:25;;;;;;;27.90;17.77;;;;;;;7.58;57.25;99069.81;5015900;28;20045;-70
2021/01/21 09:21:10;;;;;;;24.50;15.10;;;;;;;7.73;57.20;99070.38;5015115;28;20052;-67
2021/01/21 09:23:37;;;;;;;30.13;17.40;;;;;;;7.84;56.90;99065.09;5016630;28;20053;-69
2021/01/21 09:26:11;;;;;;;30.67;16.73;;;;;;;7.95;57.12;99069.47;5013332;28;20049;-69
2021/01/21 09:28:53;;;;;;;29.65;17.13;;;;;;;8.01;57.12;99063.75;5013150;28;20049;-70
2021/01/21 09:31:21;;;;;;;24.55;14.10;;;;;;;8.10;56.84;99062.13;5015251;28;20712;-69
2021/01/21 09:33:50;;;;;;;30.23;15.60;;;;;;;8.13;56.57;99061.91;5014409;28;20103;-69
2021/01/21 09:36:17;;;;;;;27.73;15.50;;;;;;;8.21;56.44;99053.38;5015424;28;20049;-69
2021/01/21 09:38:44;;;;;;;25.52;15.70;;;;;;;8.31;56.29;99061.38;5014874;28;20080;-68
2021/01/21 09:41:10;;;;;;;24.58;15.43;;;;;;;8.36;56.03;99057.38;4996537;28;20052;-69
2021/01/21 09:43:37;;;;;;;27.17;15.93;;;;;;;8.41;55.96;99057.03;5014098;28;20130;-69
2021/01/21 09:46:05;;;;;;;26.25;14.07;;;;;;;8.62;55.70;99049.16;5014163;28;20494;-71
2021/01/21 09:48:31;;;;;;;31.38;16.40;;;;;;;9.10;54.86;99045.97;4962206;28;20079;-70
2021/01/21 09:50:57;;;;;;;20.83;12.75;;;;;;;9.72;53.20;99036.19;5013904;28;20056;-67
2021/01/21 09:53:24;;;;;;;27.10;15.15;;;;;;;10.13;51.83;99026.38;5013356;28;20045;-69
2021/01/21 09:55:55;;;;;;;23.55;12.85;;;;;;;10.41;51.36;99031.00;5012868;28;20051;-66
2021/01/21 09:58:21;;;;;;;22.23;15.32;;;;;;;10.54;51.09;99030.72;5011976;28;20458;-68
2021/01/21 10:00:48;;;;;;;23.88;15.55;;;;;;;10.24;51.64;99035.13;5013512;28;20041;-70
2021/01/21 10:03:15;;;;;;;28.98;15.70;;;;;;;9.84;52.26;99017.63;5013057;28;20670;-67
2021/01/21 10:05:41;;;;;;;21.50;13.93;;;;;;;9.62;52.94;99014.25;5012569;28;20457;-66
2021/01/21 10:08:08;;;;;;;21.35;15.23;;;;;;;9.54;53.19;99025.47;5013521;28;20057;-68
2021/01/21 10:10:34;;;;;;;30.15;16.63;;;;;;;9.44;53.20;99019.34;5012430;28;20049;-66
2021/01/21 10:13:01;;;;;;;21.13;15.02;;;;;;;9.29;53.31;99018.88;5012572;28;20167;-68
2021/01/21 10:15:27;;;;;;;25.95;15.82;;;;;;;9.16;53.06;99018.25;5012691;28;20100;-67
2021/01/21 10:17:54;;;;;;;24.90;15.75;;;;;;;9.16;53.49;99013.00;5013544;28;20642;-67
2021/01/21 10:20:21;;;;;;;26.02;13.80;;;;;;;9.15;53.35;99013.97;5014135;28;20053;-66
2021/01/21 10:22:47;;;;;;;23.40;15.10;;;;;;;9.20;53.45;99019.69;5012437;28;20053;-65
2021/01/21 10:25:14;;;;;;;26.35;14.07;;;;;;;9.23;53.48;99008.03;5012744;28;20493;-68
2021/01/21 10:27:41;;;;;;;21.25;14.88;;;;;;;9.30;53.22;99007.34;5011197;28;20065;-66
2021/01/21 10:30:10;;;;;;;24.48;14.52;;;;;;;9.40;53.23;99003.91;5011409;28;20057;-67
2021/01/21 10:32:36;;;;;;;24.08;15.93;;;;;;;9.48;52.99;99002.28;5011294;28;20674;-67
2021/01/21 10:35:03;;;;;;;24.70;14.35;;;;;;;9.58;52.79;98997.03;5011653;28;20076;-71
2021/01/21 10:37:31;;;;;;;21.50;13.75;;;;;;;9.61;52.61;98999.38;5011528;28;20051;-65
2021/01/21 10:39:57;;;;;;;19.15;13.15;;;;;;;9.60;52.55;98981.91;5012708;28;20046;-65
2021/01/21 10:42:23;;;;;;;24.05;14.60;;;;;;;9.68;52.47;98979.41;5010399;28;20052;-67
2021/01/21 10:44:50;;;;;;;23.35;13.60;;;;;;;9.73;52.43;98994.84;5011134;28;20042;-66
2021/01/21 10:47:16;;;;;;;21.85;13.25;;;;;;;9.69;52.58;98978.47;5011256;28;20115;-67
2021/01/21 10:49:43;;;;;;;20.20;13.88;;;;;;;9.64;52.33;98985.94;5011707;28;20395;-68
2021/01/21 10:52:09;;;;;;;22.92;13.48;;;;;;;9.62;52.35;98990.53;5010364;28;20509;-66
2021/01/21 10:54:36;;;;;;;22.70;16.02;;;;;;;9.49;52.05;98982.00;5011902;28;20139;-66
2021/01/21 10:57:03;;;;;;;22.10;13.95;;;;;;;9.47;52.25;98976.06;5014403;28;20713;-65
2021/01/21 10:59:29;;;;;;;24.25;12.85;;;;;;;9.48;52.23;98978.56;5015948;28;20049;-66
2021/01/21 11:01:55;;;;;;;23.67;13.27;;;;;;;9.50;52.49;98973.97;4999834;28;20136;-68
2021/01/21 11:04:23;;;;;;;23.00;14.45;;;;;;;9.54;52.31;98990.34;5016765;28;20053;-68
2021/01/21 11:06:50;;;;;;;27.05;14.52;;;;;;;9.61;52.32;98983.56;5015886;28;20137;-69
2021/01/21 11:09:17;;;;;;;20.05;12.63;;;;;;;9.65;52.21;98992.91;5016833;28;20586;-68
2021/01/21 11:11:44;;;;;;;24.20;14.50;;;;;;;9.64;52.13;98993.84;5017544;28;20408;-67
2021/01/21 11:14:10;;;;;;;24.85;15.15;;;;;;;9.70;52.25;99001.19;5016376;28;20124;-67
2021/01/21 11:16:37;;;;;;;31.10;16.00;;;;;;;9.67;51.99;99006.78;5016067;28;20041;-69
2021/01/21 11:19:03;;;;;;;22.88;14.15;;;;;;;9.70;52.50;98995.94;5015879;28;20060;-68
2021/01/21 11:21:29;;;;;;;25.90;17.05;;;;;;;9.68;52.50;98992.59;5016022;28;20045;-67
2021/01/21 11:23:56;;;;;;;20.15;13.18;;;;;;;9.63;52.51;98994.81;5015974;28;20049;-65
2021/01/21 11:26:22;;;;;;;23.50;11.90;;;;;;;9.59;52.66;98992.59;5016000;28;20704;-66
2021/01/21 11:28:49;;;;;;;23.35;14.85;;;;;;;9.56;52.63;98984.00;5012750;28;20335;-69
2021/01/21 11:31:16;;;;;;;22.20;13.88;;;;;;;9.57;52.67;98972.47;5015695;28;20084;-66